createdAt,value
2024-01-15T00:00:41.932Z,1.73
2024-01-15T00:03:09.725Z,1.69
2024-01-15T00:05:37.067Z,1.69
2024-01-15T00:08:04.455Z,1.65
2024-01-15T00:10:31.638Z,1.64
2024-01-15T00:12:58.779Z,1.63
2024-01-15T00:15:26.534Z,1.67
2024-01-15T00:17:53.775Z,1.70
2024-01-15T00:20:20.982Z,1.67
2024-01-15T00:22:48.271Z,1.72
2024-01-15T00:25:15.467Z,1.60
2024-01-15T00:27:42.724Z,1.55
2024-01-15T00:30:10.906Z,1.61
2024-01-15T00:32:38.292Z,1.65
2024-01-15T00:35:06.201Z,1.72
2024-01-15T00:37:33.510Z,1.73
2024-01-15T00:40:00.743Z,1.72
2024-01-15T00:42:28.058Z,1.75
2024-01-15T00:44:55.706Z,1.71
2024-01-15T00:47:22.940Z,1.61
2024-01-15T00:49:50.153Z,1.57
2024-01-15T00:52:17.388Z,1.55
2024-01-15T00:54:44.630Z,1.65
2024-01-15T00:57:11.898Z,1.66
2024-01-15T00:59:39.358Z,1.69
2024-01-15T01:02:06.614Z,1.61
2024-01-15T01:04:33.862Z,1.62
2024-01-15T01:07:01.138Z,1.62
2024-01-15T01:09:31.465Z,1.66
2024-01-15T01:11:58.808Z,1.65
2024-01-15T01:14:25.986Z,1.61
2024-01-15T01:16:53.292Z,1.62
2024-01-15T01:19:20.644Z,1.63
2024-01-15T01:21:48.121Z,1.68
2024-01-15T01:24:15.451Z,1.61
2024-01-15T01:26:42.644Z,1.58
2024-01-15T01:29:09.827Z,1.54
2024-01-15T01:31:37.299Z,1.51
2024-01-15T01:34:04.736Z,1.52
2024-01-15T01:36:33.090Z,1.39
2024-01-15T01:39:00.581Z,1.49
2024-01-15T01:41:27.987Z,1.50
2024-01-15T01:43:56.674Z,1.49
2024-01-15T01:46:24.801Z,1.35
2024-01-15T01:48:52.228Z,1.39
2024-01-15T01:51:20.727Z,1.42
2024-01-15T01:53:48.204Z,1.47
2024-01-15T01:56:16.375Z,1.49
2024-01-15T01:58:44.686Z,1.60
2024-01-15T02:01:16.869Z,1.64
2024-01-15T02:03:44.923Z,1.64
2024-01-15T02:06:12.317Z,1.64
2024-01-15T02:08:39.930Z,1.54
2024-01-15T02:11:07.128Z,1.62
2024-01-15T02:13:34.365Z,1.62
2024-01-15T02:16:01.573Z,1.64
2024-01-15T02:18:28.956Z,1.50
2024-01-15T02:20:56.180Z,1.46
2024-01-15T02:23:23.553Z,1.48
2024-01-15T02:25:50.855Z,1.62
2024-01-15T02:28:19.146Z,1.50
2024-01-15T02:30:46.776Z,1.57
2024-01-15T02:33:14.854Z,1.51
2024-01-15T02:35:42.710Z,1.52
2024-01-15T02:38:10.127Z,1.53
2024-01-15T02:40:37.355Z,1.52
2024-01-15T02:43:04.909Z,1.43
2024-01-15T02:45:32.252Z,1.42
2024-01-15T02:47:59.710Z,1.39
2024-01-15T02:50:27.220Z,1.34
2024-01-15T02:52:54.470Z,1.39
2024-01-15T02:55:21.763Z,1.38
2024-01-15T02:57:49.031Z,1.31
2024-01-15T03:00:16.744Z,1.29
2024-01-15T03:02:48.470Z,1.29
2024-01-15T03:05:16.556Z,1.21
2024-01-15T03:07:44.395Z,1.18
2024-01-15T03:10:11.709Z,1.18
2024-01-15T03:12:38.926Z,1.26
2024-01-15T03:15:06.887Z,1.39
2024-01-15T03:17:34.251Z,1.40
2024-01-15T03:20:01.860Z,1.35
2024-01-15T03:22:29.154Z,1.36
2024-01-15T03:24:56.436Z,1.45
2024-01-15T03:27:23.647Z,1.28
2024-01-15T03:29:50.952Z,1.21
2024-01-15T03:32:18.273Z,1.25
2024-01-15T03:34:45.614Z,1.18
2024-01-15T03:37:12.880Z,1.26
2024-01-15T03:39:40.182Z,1.29
2024-01-15T03:42:08.064Z,1.21
2024-01-15T03:44:35.344Z,1.17
2024-01-15T03:47:02.588Z,1.05
2024-01-15T03:49:29.937Z,1.07
2024-01-15T03:51:57.286Z,1.14
2024-01-15T03:54:24.667Z,1.19
2024-01-15T03:56:53.426Z,1.14
2024-01-15T03:59:20.666Z,1.20
2024-01-15T04:01:54.136Z,1.19
2024-01-15T04:04:21.678Z,1.24
2024-01-15T04:06:49.184Z,1.21
2024-01-15T04:09:17.515Z,1.16
2024-01-15T04:11:44.753Z,1.18
2024-01-15T04:14:11.999Z,1.29
2024-01-15T04:16:39.436Z,1.25
2024-01-15T04:19:06.893Z,1.18
2024-01-15T04:21:34.280Z,1.21
2024-01-15T04:24:01.502Z,1.25
2024-01-15T04:26:28.760Z,1.18
2024-01-15T04:28:55.913Z,1.24
2024-01-15T04:31:25.499Z,1.23
2024-01-15T04:33:53.065Z,1.22
2024-01-15T04:36:20.355Z,1.20
2024-01-15T04:38:47.651Z,1.20
2024-01-15T04:41:15.623Z,1.11
2024-01-15T04:43:42.817Z,1.08
2024-01-15T04:46:10.173Z,1.10
2024-01-15T04:48:37.675Z,1.23
2024-01-15T04:51:10.569Z,1.19
2024-01-15T04:53:37.862Z,1.19
2024-01-15T04:56:05.387Z,1.18
2024-01-15T04:58:32.672Z,1.28
2024-01-15T05:00:59.922Z,1.29
2024-01-15T05:03:27.256Z,1.24
2024-01-15T05:05:54.635Z,1.22
2024-01-15T05:08:21.972Z,1.17
2024-01-15T05:10:49.418Z,1.21
2024-01-15T05:13:16.682Z,1.21
2024-01-15T05:15:44.309Z,1.16
2024-01-15T05:18:11.830Z,1.11
2024-01-15T05:20:39.161Z,1.09
2024-01-15T05:23:06.392Z,1.19
2024-01-15T05:25:33.657Z,1.12
2024-01-15T05:28:01.246Z,1.21
2024-01-15T05:30:28.495Z,1.19
2024-01-15T05:32:55.908Z,1.16
2024-01-15T05:35:23.181Z,1.08
2024-01-15T05:37:50.447Z,1.13
2024-01-15T05:40:17.594Z,1.26
2024-01-15T05:42:44.851Z,1.22
2024-01-15T05:45:12.143Z,1.22
2024-01-15T05:47:39.556Z,1.21
2024-01-15T05:50:08.170Z,1.18
2024-01-15T05:52:35.389Z,1.21
2024-01-15T05:55:02.732Z,1.29
2024-01-15T05:57:30.472Z,1.31
2024-01-15T05:59:57.811Z,1.36
2024-01-15T06:02:25.044Z,1.19
2024-01-15T06:04:52.305Z,1.11
2024-01-15T06:07:19.569Z,1.09
2024-01-15T06:09:46.766Z,1.13
2024-01-15T06:12:14.023Z,1.20
2024-01-15T06:14:42.708Z,1.12
2024-01-15T06:17:10.044Z,1.12
2024-01-15T06:19:37.257Z,1.07
2024-01-15T06:22:04.790Z,1.09
2024-01-15T06:24:32.187Z,1.09
2024-01-15T06:26:59.769Z,1.14
2024-01-15T06:29:28.549Z,1.17
2024-01-15T06:31:55.867Z,1.11
2024-01-15T06:34:23.218Z,1.06
2024-01-15T06:36:50.663Z,1.02
2024-01-15T06:39:18.066Z,1.13
2024-01-15T06:41:45.334Z,1.06
2024-01-15T06:44:12.944Z,1.05
2024-01-15T06:46:46.498Z,1.04
2024-01-15T06:49:14.065Z,1.06
2024-01-15T06:51:41.678Z,1.09
2024-01-15T06:54:09.213Z,1.04
2024-01-15T06:56:36.641Z,1.03
2024-01-15T06:59:04.281Z,1.07
2024-01-15T07:01:31.575Z,1.09
2024-01-15T07:03:59.047Z,0.98
2024-01-15T07:06:26.485Z,0.98
2024-01-15T07:08:53.806Z,0.91
2024-01-15T07:11:21.151Z,0.87
2024-01-15T07:13:48.413Z,0.91
2024-01-15T07:16:29.706Z,0.91
2024-01-15T07:19:02.896Z,0.87
2024-01-15T07:21:31.453Z,0.88
2024-01-15T07:23:58.715Z,0.82
2024-01-15T07:26:26.735Z,0.94
2024-01-15T07:28:53.999Z,0.94
2024-01-15T07:31:21.313Z,0.97
2024-01-15T07:33:48.650Z,0.99
2024-01-15T07:36:16.369Z,0.94
2024-01-15T07:38:44.433Z,0.96
2024-01-15T07:41:11.658Z,0.98
2024-01-15T07:43:40.156Z,1.02
2024-01-15T07:46:08.669Z,1.01
2024-01-15T07:48:36.156Z,1.02
2024-01-15T07:51:03.668Z,0.92
2024-01-15T07:53:30.853Z,0.94
2024-01-15T07:55:58.089Z,0.94
2024-01-15T07:58:25.409Z,0.86
2024-01-15T08:00:53.367Z,0.84
2024-01-15T08:03:20.940Z,0.91
2024-01-15T08:05:48.546Z,0.91
2024-01-15T08:08:15.768Z,1.02
2024-01-15T08:10:42.953Z,-0.76
2024-01-15T08:13:10.622Z,0.10
2024-01-15T08:15:38.034Z,0.39
2024-01-15T08:18:05.498Z,0.60
2024-01-15T08:20:32.797Z,0.73
2024-01-15T08:23:00.409Z,0.69
2024-01-15T08:25:27.589Z,0.74
2024-01-15T08:27:54.815Z,0.80
2024-01-15T08:30:22.572Z,0.77
2024-01-15T08:32:49.860Z,0.77
2024-01-15T08:35:17.453Z,0.81
2024-01-15T08:37:44.785Z,0.87
2024-01-15T08:40:12.452Z,0.78
2024-01-15T08:42:39.779Z,0.65
2024-01-15T08:45:07.343Z,0.66
2024-01-15T08:47:34.741Z,0.48
2024-01-15T08:50:02.191Z,0.47
2024-01-15T08:52:30.479Z,0.55
2024-01-15T08:55:00.574Z,0.57
2024-01-15T08:57:27.991Z,0.55
2024-01-15T08:59:56.298Z,0.53
2024-01-15T09:02:23.715Z,0.57
2024-01-15T09:04:50.963Z,0.64
2024-01-15T09:07:18.436Z,0.69
2024-01-15T09:09:45.637Z,0.71
2024-01-15T09:12:16.968Z,0.76
2024-01-15T09:14:44.204Z,0.77
2024-01-15T09:17:11.445Z,0.73
2024-01-15T09:19:40.624Z,0.71
2024-01-15T09:22:08.274Z,0.79
2024-01-15T09:24:35.546Z,0.75
2024-01-15T09:27:03.783Z,0.71
2024-01-15T09:29:31.192Z,0.64
2024-01-15T09:31:58.687Z,0.65
2024-01-15T09:34:26.529Z,0.68
2024-01-15T09:36:53.919Z,0.69
2024-01-15T09:39:21.245Z,0.65
2024-01-15T09:41:49.420Z,0.68
2024-01-15T09:44:18.386Z,0.71
2024-01-15T09:46:46.384Z,0.72
2024-01-15T09:49:13.858Z,0.69
2024-01-15T09:51:42.575Z,0.73
2024-01-15T09:54:10.356Z,0.79
2024-01-15T09:56:37.534Z,0.80
2024-01-15T09:59:07.648Z,0.83
2024-01-15T10:01:38.053Z,0.77
2024-01-15T10:04:05.488Z,0.83
2024-01-15T10:06:33.740Z,0.88
2024-01-15T10:09:01.767Z,0.88
2024-01-15T10:11:29.318Z,0.95
2024-01-15T10:13:58.671Z,0.94
2024-01-15T10:16:26.804Z,0.92
2024-01-15T10:18:54.591Z,0.83
2024-01-15T10:21:21.890Z,0.87
2024-01-15T10:23:49.229Z,0.84
2024-01-15T10:26:19.114Z,0.80
2024-01-15T10:28:46.724Z,0.79
2024-01-15T10:31:14.135Z,0.75
2024-01-15T10:33:41.420Z,0.81
2024-01-15T10:36:12.315Z,0.81
2024-01-15T10:38:39.612Z,0.84
2024-01-15T10:41:06.927Z,0.89
2024-01-15T10:43:35.347Z,0.79
2024-01-15T10:46:04.997Z,0.78
2024-01-15T10:48:32.793Z,0.81
2024-01-15T10:50:59.993Z,0.86
2024-01-15T10:53:27.864Z,0.92
2024-01-15T10:55:55.237Z,0.92
2024-01-15T10:58:24.540Z,0.87
2024-01-15T11:00:52.400Z,0.81
2024-01-15T11:03:20.117Z,0.80
2024-01-15T11:05:48.260Z,0.78
2024-01-15T11:08:19.315Z,0.83
2024-01-15T11:10:50.311Z,0.82
2024-01-15T11:13:22.764Z,0.84
2024-01-15T11:16:17.247Z,0.93
2024-01-15T11:19:07.795Z,1.01
2024-01-15T11:21:43.821Z,0.96
2024-01-15T11:24:13.633Z,1.04
2024-01-15T11:26:48.173Z,0.97
2024-01-15T11:29:36.373Z,0.81
2024-01-15T11:32:12.532Z,0.86
2024-01-15T11:35:04.256Z,0.84
2024-01-15T11:37:51.751Z,0.92
2024-01-15T11:40:20.382Z,0.90
2024-01-15T11:42:49.137Z,0.91
2024-01-15T11:45:23.880Z,0.91
2024-01-15T11:48:00.117Z,0.95
2024-01-15T11:50:32.535Z,0.93
2024-01-15T11:53:07.390Z,0.93
2024-01-15T11:55:36.302Z,0.94
2024-01-15T11:58:11.594Z,0.95
2024-01-15T12:00:44.418Z,0.92
2024-01-15T12:03:12.126Z,0.87
2024-01-15T12:05:40.239Z,0.84
2024-01-15T12:08:14.066Z,0.88
2024-01-15T12:10:43.004Z,0.84
2024-01-15T12:13:15.493Z,0.77
2024-01-15T12:15:44.767Z,0.80
2024-01-15T12:18:15.117Z,0.81
2024-01-15T12:20:43.992Z,0.81
2024-01-15T12:23:11.844Z,0.86
2024-01-15T12:25:39.434Z,0.88
2024-01-15T12:28:07.229Z,0.90
2024-01-15T12:30:36.198Z,0.89
2024-01-15T12:33:07.530Z,0.88
2024-01-15T12:35:36.191Z,0.87
2024-01-15T12:38:07.597Z,0.86
2024-01-15T12:40:37.077Z,0.87
2024-01-15T12:43:08.048Z,0.82
2024-01-15T12:45:37.108Z,0.81
2024-01-15T12:48:05.764Z,0.91
2024-01-15T12:50:35.092Z,0.96
2024-01-15T12:53:03.176Z,0.93
2024-01-15T12:55:30.436Z,0.91
2024-01-15T12:57:57.658Z,0.89
2024-01-15T13:00:27.025Z,0.87
2024-01-15T13:02:56.281Z,0.81
2024-01-15T13:05:24.571Z,0.82
2024-01-15T13:07:52.235Z,0.84
2024-01-15T13:10:19.420Z,0.93
2024-01-15T13:12:46.803Z,0.94
2024-01-15T13:15:15.363Z,0.93
2024-01-15T13:17:44.323Z,0.99
2024-01-15T13:20:13.553Z,0.99
2024-01-15T13:22:41.946Z,0.99
2024-01-15T13:25:10.157Z,0.99
2024-01-15T13:27:39.236Z,1.01
2024-01-15T13:30:09.668Z,0.92
2024-01-15T13:32:37.403Z,0.92
2024-01-15T13:35:11.262Z,0.90
2024-01-15T13:37:39.603Z,0.90
2024-01-15T13:40:09.408Z,0.92
2024-01-15T13:42:39.790Z,0.93
2024-01-15T13:45:07.561Z,0.95
2024-01-15T13:47:35.237Z,0.91
2024-01-15T13:50:02.527Z,0.86
2024-01-15T13:52:29.754Z,0.88
2024-01-15T13:54:57.095Z,0.88
2024-01-15T13:57:24.416Z,0.87
2024-01-15T13:59:51.665Z,0.88
2024-01-15T14:02:21.239Z,0.84
2024-01-15T14:04:50.378Z,0.88
2024-01-15T14:07:18.318Z,0.91
2024-01-15T14:09:48.562Z,0.93
2024-01-15T14:12:15.977Z,0.95
2024-01-15T14:14:43.150Z,0.97
2024-01-15T14:17:10.600Z,0.91
2024-01-15T14:19:38.154Z,0.92
2024-01-15T14:22:05.717Z,0.91
2024-01-15T14:24:33.035Z,0.93
2024-01-15T14:27:00.421Z,0.88
2024-01-15T14:29:28.505Z,0.88
2024-01-15T14:31:56.966Z,0.92
2024-01-15T14:34:25.473Z,0.91
2024-01-15T14:36:55.651Z,0.82
2024-01-15T14:39:23.951Z,0.90
2024-01-15T14:41:51.208Z,0.87
2024-01-15T14:44:18.946Z,0.83
2024-01-15T14:46:47.295Z,0.82
2024-01-15T14:49:16.262Z,0.81
2024-01-15T14:51:43.901Z,0.88
2024-01-15T14:54:11.518Z,0.88
2024-01-15T14:56:38.793Z,0.89
2024-01-15T14:59:06.023Z,0.84
2024-01-15T15:01:33.576Z,0.81
2024-01-15T15:04:01.085Z,0.78
2024-01-15T15:06:29.724Z,0.76
2024-01-15T15:08:59.000Z,0.75
2024-01-15T15:11:29.760Z,0.75
2024-01-15T15:13:56.997Z,0.79
2024-01-15T15:16:24.189Z,0.80
2024-01-15T15:18:51.776Z,0.82
2024-01-15T15:21:19.276Z,0.79
2024-01-15T15:23:46.578Z,0.81
2024-01-15T15:26:13.836Z,0.80
2024-01-15T15:28:41.183Z,0.69
2024-01-15T15:31:14.740Z,0.72
2024-01-15T15:33:42.453Z,0.82
2024-01-15T15:36:09.930Z,0.88
2024-01-15T15:38:37.276Z,0.86
2024-01-15T15:41:04.657Z,0.84
2024-01-15T15:43:31.881Z,0.86
2024-01-15T15:46:02.153Z,0.87
2024-01-15T15:48:29.712Z,0.86
2024-01-15T15:50:57.633Z,0.87
2024-01-15T15:53:26.125Z,0.81
2024-01-15T15:55:53.662Z,0.84
2024-01-15T15:58:21.864Z,0.82
2024-01-15T16:00:49.485Z,0.77
2024-01-15T16:03:17.090Z,0.78
2024-01-15T16:05:51.914Z,0.77
2024-01-15T16:08:21.331Z,0.79
2024-01-15T16:10:53.426Z,0.79
2024-01-15T16:13:21.278Z,0.73
2024-01-15T16:15:49.010Z,0.82
2024-01-15T16:23:20.069Z,0.79
2024-01-15T16:23:34.766Z,0.82
2024-01-15T16:24:12.317Z,0.86
2024-01-15T16:26:45.174Z,0.78
2024-01-15T16:29:12.745Z,0.76
2024-01-15T16:31:40.061Z,0.84
2024-01-15T16:34:09.753Z,0.90
2024-01-15T16:36:38.967Z,0.88
2024-01-15T16:39:06.155Z,0.87
2024-01-15T16:41:33.501Z,0.91
2024-01-15T16:44:00.768Z,0.92
2024-01-15T16:46:27.989Z,0.95
2024-01-15T16:48:55.449Z,0.91
2024-01-15T16:51:22.955Z,0.94
2024-01-15T16:53:51.409Z,0.91
2024-01-15T16:56:18.902Z,0.90
2024-01-15T16:58:46.109Z,0.79
2024-01-15T17:01:13.312Z,0.79
2024-01-15T17:03:40.523Z,0.81
2024-01-15T17:06:08.168Z,0.82
2024-01-15T17:08:35.533Z,0.79
2024-01-15T17:11:04.303Z,0.83
2024-01-15T17:13:31.672Z,0.84
2024-01-15T17:15:58.940Z,0.87
2024-01-15T17:18:26.207Z,0.88
2024-01-15T17:20:53.538Z,0.88
2024-01-15T17:23:21.000Z,0.86
2024-01-15T17:25:48.214Z,0.84
2024-01-15T17:28:15.396Z,0.82
2024-01-15T17:30:42.662Z,0.86
2024-01-15T17:33:09.877Z,0.82
2024-01-15T17:35:37.118Z,0.81
2024-01-15T17:38:04.509Z,0.83
2024-01-15T17:40:31.821Z,0.79
2024-01-15T17:42:59.006Z,0.88
2024-01-15T17:45:28.061Z,0.79
2024-01-15T17:47:55.591Z,0.79
2024-01-15T17:50:22.985Z,0.75
2024-01-15T17:52:50.268Z,0.79
2024-01-15T17:55:18.550Z,0.69
2024-01-15T17:57:45.888Z,0.75
2024-01-15T18:00:15.908Z,0.71
2024-01-15T18:02:44.078Z,0.30
2024-01-15T18:05:11.510Z,0.31
2024-01-15T18:07:38.784Z,0.65
2024-01-15T18:10:07.201Z,0.73
2024-01-15T18:12:34.516Z,0.75
2024-01-15T18:15:02.433Z,-0.76
2024-01-15T18:17:29.814Z,-1.17
2024-01-15T18:20:00.104Z,-1.21
2024-01-15T18:22:27.393Z,-1.13
2024-01-15T18:24:54.613Z,-1.04
2024-01-15T18:27:22.038Z,-1.26
2024-01-15T18:29:49.263Z,-0.98
2024-01-15T18:32:16.957Z,-0.05
2024-01-15T18:34:44.372Z,0.29
2024-01-15T18:37:11.643Z,0.46
2024-01-15T18:39:38.830Z,0.48
2024-01-15T18:42:06.273Z,0.50
2024-01-15T18:44:33.691Z,0.51
2024-01-15T18:47:01.053Z,0.50
2024-01-15T18:49:28.603Z,0.50
2024-01-15T18:51:58.022Z,0.49
2024-01-15T18:54:25.433Z,0.52
2024-01-15T18:56:52.818Z,0.50
2024-01-15T18:59:20.911Z,0.49
2024-01-15T19:01:48.226Z,0.47
2024-01-15T19:04:16.949Z,0.47
2024-01-15T19:06:46.039Z,0.46
2024-01-15T19:09:14.870Z,0.57
2024-01-15T19:11:42.257Z,0.54
2024-01-15T19:14:09.729Z,0.53
2024-01-15T19:16:36.991Z,0.53
2024-01-15T19:19:04.713Z,0.57
2024-01-15T19:21:31.969Z,0.54
2024-01-15T19:23:59.773Z,0.57
2024-01-15T19:26:27.312Z,0.63
2024-01-15T19:28:54.947Z,0.65
2024-01-15T19:31:22.153Z,0.66
2024-01-15T19:33:49.926Z,0.71
2024-01-15T19:36:35.413Z,0.64
2024-01-15T19:39:03.158Z,0.69
2024-01-15T19:41:30.344Z,0.63
2024-01-15T19:43:57.553Z,0.69
2024-01-15T19:46:24.805Z,0.68
2024-01-15T19:48:53.201Z,0.73
2024-01-15T19:51:20.438Z,0.74
2024-01-15T19:53:48.063Z,0.71
2024-01-15T19:56:18.605Z,0.69
2024-01-15T19:58:46.120Z,0.77
2024-01-15T20:01:13.415Z,0.74
2024-01-15T20:03:42.535Z,0.71
2024-01-15T20:06:12.977Z,0.72
2024-01-15T20:08:44.710Z,0.74
2024-01-15T20:11:12.857Z,0.74
2024-01-15T20:13:41.198Z,0.74
2024-01-15T20:16:16.017Z,0.68
2024-01-15T20:18:43.601Z,0.68
2024-01-15T20:21:11.673Z,0.65
2024-01-15T20:23:45.992Z,0.64
2024-01-15T20:26:18.462Z,0.60
2024-01-15T20:28:48.030Z,0.62
2024-01-15T20:31:15.347Z,0.61
2024-01-15T20:33:43.026Z,0.61
2024-01-15T20:36:10.734Z,0.67
2024-01-15T20:38:40.009Z,0.62
2024-01-15T20:41:07.656Z,0.62
2024-01-15T20:43:36.225Z,0.57
2024-01-15T20:46:03.846Z,0.54
2024-01-15T20:48:31.272Z,0.60
2024-01-15T20:50:59.592Z,0.62
2024-01-15T20:53:27.207Z,0.67
2024-01-15T20:55:54.488Z,0.68
2024-01-15T20:58:24.018Z,0.67
2024-01-15T21:00:51.662Z,0.65
2024-01-15T21:03:19.630Z,0.63
2024-01-15T21:05:47.141Z,0.65
2024-01-15T21:08:16.632Z,0.54
2024-01-15T21:10:44.056Z,0.52
2024-01-15T21:13:11.363Z,0.48
2024-01-15T21:15:38.545Z,0.44
2024-01-15T21:18:07.234Z,0.44
2024-01-15T21:20:34.894Z,0.43
2024-01-15T21:23:03.311Z,0.39
2024-01-15T21:25:30.599Z,0.47
2024-01-15T21:27:59.384Z,0.50
2024-01-15T21:30:26.640Z,0.51
2024-01-15T21:32:54.095Z,0.53
2024-01-15T21:35:21.444Z,0.52
2024-01-15T21:37:48.648Z,0.49
2024-01-15T21:40:17.092Z,0.48
2024-01-15T21:42:45.133Z,0.51
2024-01-15T21:45:12.546Z,0.52
2024-01-15T21:47:40.177Z,0.46
2024-01-15T21:50:08.470Z,0.50
2024-01-15T21:52:36.058Z,0.54
2024-01-15T21:55:03.680Z,0.59
2024-01-15T21:57:31.058Z,0.52
2024-01-15T21:59:58.269Z,0.58
2024-01-15T22:02:25.535Z,0.55
2024-01-15T22:04:52.728Z,0.52
2024-01-15T22:07:19.924Z,0.48
2024-01-15T22:09:47.107Z,0.51
2024-01-15T22:12:14.287Z,0.50
2024-01-15T22:14:41.575Z,0.45
2024-01-15T22:17:08.883Z,0.47
2024-01-15T22:19:36.394Z,0.50
2024-01-15T22:22:03.746Z,0.51
2024-01-15T22:24:30.901Z,0.48
2024-01-15T22:26:58.186Z,0.47
2024-01-15T22:29:25.453Z,0.43
2024-01-15T22:31:52.856Z,0.48
2024-01-15T22:34:20.344Z,0.46
2024-01-15T22:36:47.712Z,0.52
2024-01-15T22:39:15.181Z,0.53
2024-01-15T22:41:42.506Z,0.54
2024-01-15T22:44:10.189Z,0.58
2024-01-15T22:46:37.464Z,0.54
2024-01-15T22:49:04.994Z,0.57
2024-01-15T22:51:32.315Z,0.53
2024-01-15T22:53:59.470Z,0.55
2024-01-15T22:56:26.713Z,0.59
2024-01-15T22:58:54.372Z,0.58
2024-01-15T23:01:24.618Z,0.60
2024-01-15T23:03:51.828Z,0.58
2024-01-15T23:06:20.694Z,0.52
2024-01-15T23:08:49.777Z,0.51
2024-01-15T23:11:17.205Z,0.46
2024-01-15T23:13:44.474Z,0.49
2024-01-15T23:16:15.335Z,0.52
2024-01-15T23:18:43.280Z,0.55
2024-01-15T23:21:11.050Z,0.54
2024-01-15T23:23:38.655Z,0.55
2024-01-15T23:26:06.296Z,0.59
2024-01-15T23:28:33.961Z,0.57
2024-01-15T23:31:04.438Z,0.59
2024-01-15T23:33:31.787Z,0.61
2024-01-15T23:36:02.041Z,0.60
2024-01-15T23:38:30.325Z,0.58
2024-01-15T23:40:57.671Z,0.57
2024-01-15T23:43:24.909Z,0.58
2024-01-15T23:45:56.312Z,0.57
2024-01-15T23:48:29.748Z,0.59
2024-01-15T23:50:57.837Z,0.55
2024-01-15T23:53:25.110Z,0.57
2024-01-15T23:55:52.334Z,0.57
2024-01-15T23:58:19.563Z,0.55
